createdAt,value
2022-07-26T00:00:34.018Z,22.00
2022-07-26T00:03:01.023Z,22.00
2022-07-26T00:05:28.144Z,22.00
2022-07-26T00:08:10.818Z,22.10
2022-07-26T00:10:40.418Z,22.10
2022-07-26T00:13:07.821Z,22.10
2022-07-26T00:15:35.378Z,22.10
2022-07-26T00:18:02.782Z,22.10
2022-07-26T00:20:32.289Z,22.10
2022-07-26T00:23:00.620Z,22.10
2022-07-26T00:25:28.153Z,22.10
2022-07-26T00:27:55.768Z,22.10
2022-07-26T00:30:23.520Z,22.10
2022-07-26T00:32:51.184Z,22.10
2022-07-26T00:35:18.816Z,22.20
2022-07-26T00:37:46.780Z,22.20
2022-07-26T00:40:14.610Z,22.20
2022-07-26T00:42:41.922Z,22.20
2022-07-26T00:45:10.176Z,22.30
2022-07-26T00:47:37.449Z,22.20
2022-07-26T00:50:10.673Z,22.20
2022-07-26T00:52:40.945Z,22.30
2022-07-26T00:55:08.327Z,22.30
2022-07-26T00:57:36.078Z,22.30
2022-07-26T01:00:06.625Z,22.20
2022-07-26T01:02:34.105Z,22.20
2022-07-26T01:05:01.449Z,22.20
2022-07-26T01:07:29.963Z,22.20
2022-07-26T01:09:57.522Z,22.20
2022-07-26T01:12:24.867Z,22.10
2022-07-26T01:14:51.981Z,22.10
2022-07-26T01:17:19.075Z,22.10
2022-07-26T01:19:46.076Z,22.10
2022-07-26T01:22:14.804Z,22.10
2022-07-26T01:24:42.729Z,22.10
2022-07-26T01:27:09.967Z,22.10
2022-07-26T01:29:37.452Z,22.10
2022-07-26T01:32:05.620Z,22.10
2022-07-26T01:34:32.966Z,22.00
2022-07-26T01:37:00.435Z,22.00
2022-07-26T01:39:27.381Z,22.00
2022-07-26T01:41:54.909Z,22.00
2022-07-26T01:44:23.103Z,21.90
2022-07-26T01:46:50.412Z,21.90
2022-07-26T01:49:17.977Z,21.80
2022-07-26T01:51:45.129Z,21.80
2022-07-26T01:54:12.603Z,21.70
2022-07-26T01:56:39.967Z,21.70
2022-07-26T01:59:07.341Z,21.60
2022-07-26T02:01:39.058Z,21.50
2022-07-26T02:04:08.445Z,21.50
2022-07-26T02:06:35.736Z,21.40
2022-07-26T02:09:07.521Z,21.40
2022-07-26T02:11:34.730Z,21.40
2022-07-26T02:14:03.226Z,21.30
2022-07-26T02:16:30.414Z,21.30
2022-07-26T02:18:57.617Z,21.20
2022-07-26T02:21:24.791Z,21.20
2022-07-26T02:23:51.735Z,21.20
2022-07-26T02:26:18.768Z,21.20
2022-07-26T02:28:45.862Z,21.20
2022-07-26T02:31:15.478Z,21.10
2022-07-26T02:33:43.024Z,21.10
2022-07-26T02:36:10.080Z,21.00
2022-07-26T02:38:37.625Z,21.00
2022-07-26T02:41:08.292Z,21.00
2022-07-26T02:43:35.304Z,21.00
2022-07-26T02:46:02.743Z,20.90
2022-07-26T02:48:31.827Z,20.90
2022-07-26T02:50:59.032Z,20.90
2022-07-26T02:53:25.935Z,20.90
2022-07-26T02:55:53.055Z,20.90
2022-07-26T02:58:21.747Z,20.90
2022-07-26T03:00:48.864Z,20.90
2022-07-26T03:03:15.983Z,20.90
2022-07-26T03:05:42.959Z,20.90
2022-07-26T03:08:09.975Z,20.90
2022-07-26T03:10:36.951Z,20.90
2022-07-26T03:13:04.035Z,21.00
2022-07-26T03:15:31.171Z,21.00
2022-07-26T03:17:58.292Z,21.00
2022-07-26T03:20:25.447Z,21.00
2022-07-26T03:22:52.429Z,20.90
2022-07-26T03:25:19.379Z,20.80
2022-07-26T03:27:46.411Z,20.80
2022-07-26T03:30:14.355Z,20.70
2022-07-26T03:32:41.875Z,20.60
2022-07-26T03:35:09.245Z,20.60
2022-07-26T03:37:45.982Z,20.60
2022-07-26T03:40:16.100Z,20.60
2022-07-26T03:42:43.455Z,20.60
2022-07-26T03:45:11.088Z,20.60
2022-07-26T03:47:38.439Z,20.50
2022-07-26T03:50:07.179Z,20.50
2022-07-26T03:52:34.582Z,20.50
2022-07-26T03:55:21.648Z,20.40
2022-07-26T03:57:48.715Z,20.40
2022-07-26T04:00:15.884Z,20.40
2022-07-26T04:02:45.115Z,20.30
2022-07-26T04:05:12.074Z,20.30
2022-07-26T04:07:52.769Z,20.30
2022-07-26T04:10:21.591Z,20.30
2022-07-26T04:12:49.394Z,20.30
2022-07-26T04:15:17.338Z,20.20
2022-07-26T04:17:44.609Z,20.30
2022-07-26T04:20:12.718Z,20.20
2022-07-26T04:22:40.954Z,20.20
2022-07-26T04:25:09.602Z,20.20
2022-07-26T04:27:38.303Z,20.20
2022-07-26T04:30:14.484Z,20.20
2022-07-26T04:32:43.312Z,20.10
2022-07-26T04:35:16.101Z,20.10
2022-07-26T04:37:44.569Z,20.10
2022-07-26T04:40:15.692Z,20.10
2022-07-26T04:42:43.296Z,20.10
2022-07-26T04:45:12.159Z,20.10
2022-07-26T04:47:49.133Z,20.10
2022-07-26T04:50:19.289Z,20.20
2022-07-26T04:52:46.938Z,20.20
2022-07-26T04:55:14.801Z,20.20
2022-07-26T04:57:42.036Z,20.30
2022-07-26T05:00:26.727Z,20.30
2022-07-26T05:02:56.578Z,20.40
2022-07-26T05:05:25.601Z,20.40
2022-07-26T05:07:54.815Z,20.50
2022-07-26T05:10:27.407Z,20.50
2022-07-26T05:12:54.331Z,20.50
2022-07-26T05:15:21.210Z,20.60
2022-07-26T05:17:48.192Z,20.70
2022-07-26T05:20:16.702Z,20.70
2022-07-26T05:22:45.234Z,20.70
2022-07-26T05:25:14.079Z,20.80
2022-07-26T05:27:44.000Z,20.90
2022-07-26T05:30:11.322Z,20.90
2022-07-26T05:32:38.852Z,20.90
2022-07-26T05:35:07.757Z,21.00
2022-07-26T05:37:35.228Z,21.00
2022-07-26T05:40:03.367Z,21.00
2022-07-26T05:42:30.302Z,21.00
2022-07-26T05:44:57.406Z,20.90
2022-07-26T05:47:24.819Z,20.70
2022-07-26T05:49:51.860Z,20.60
2022-07-26T05:52:20.082Z,20.50
2022-07-26T05:54:53.673Z,20.40
2022-07-26T05:57:23.465Z,20.30
2022-07-26T05:59:50.677Z,20.20
2022-07-26T06:02:18.125Z,20.20
2022-07-26T06:04:47.607Z,20.20
2022-07-26T06:07:15.464Z,20.10
2022-07-26T06:09:43.076Z,20.10
2022-07-26T06:12:10.228Z,20.00
2022-07-26T06:14:37.167Z,20.00
2022-07-26T06:17:10.077Z,19.90
2022-07-26T06:19:37.479Z,19.70
2022-07-26T06:22:07.964Z,19.60
2022-07-26T06:24:36.737Z,19.60
2022-07-26T06:27:08.459Z,19.60
2022-07-26T06:29:35.903Z,19.60
2022-07-26T06:32:03.086Z,19.60
2022-07-26T06:34:36.142Z,19.60
2022-07-26T06:37:03.799Z,19.70
2022-07-26T06:39:32.479Z,19.70
2022-07-26T06:42:00.689Z,19.60
2022-07-26T06:44:32.355Z,19.60
2022-07-26T06:46:59.884Z,19.70
2022-07-26T06:49:29.583Z,19.80
2022-07-26T06:51:58.186Z,19.90
2022-07-26T06:54:25.242Z,20.00
2022-07-26T06:56:54.826Z,20.00
2022-07-26T06:59:24.595Z,20.10
2022-07-26T07:01:59.987Z,20.20
2022-07-26T07:04:31.482Z,20.30
2022-07-26T07:07:08.661Z,20.30
2022-07-26T07:09:39.742Z,20.40
2022-07-26T07:12:13.736Z,20.40
2022-07-26T07:14:41.032Z,20.40
2022-07-26T07:17:12.125Z,20.40
2022-07-26T07:19:44.209Z,20.40
2022-07-26T07:22:17.736Z,20.40
2022-07-26T07:24:44.871Z,20.40
2022-07-26T07:27:13.824Z,20.30
2022-07-26T07:29:45.297Z,20.30
2022-07-26T07:38:04.197Z,20.00
2022-07-26T07:40:37.198Z,19.80
2022-07-26T07:43:07.929Z,19.80
2022-07-26T07:45:35.253Z,19.90
2022-07-26T07:48:02.426Z,20.10
2022-07-26T07:50:34.317Z,20.20
2022-07-26T07:53:02.489Z,20.40
2022-07-26T07:55:41.521Z,20.60
2022-07-26T07:58:12.439Z,20.80
2022-07-26T08:00:42.681Z,21.00
2022-07-26T08:03:10.014Z,21.20
2022-07-26T08:05:40.614Z,21.30
2022-07-26T08:08:12.901Z,21.40
2022-07-26T08:10:52.026Z,21.50
2022-07-26T08:13:23.020Z,21.60
2022-07-26T08:16:00.803Z,21.60
2022-07-26T08:18:28.222Z,21.70
2022-07-26T08:20:55.595Z,21.80
2022-07-26T08:23:22.940Z,21.90
2022-07-26T08:25:56.645Z,22.20
2022-07-26T08:28:46.697Z,22.60
2022-07-26T08:31:18.403Z,22.90
2022-07-26T08:33:45.789Z,22.90
2022-07-26T08:36:17.470Z,22.80
2022-07-26T08:38:48.430Z,22.70
2022-07-26T08:41:18.093Z,22.60
2022-07-26T08:43:52.363Z,22.40
2022-07-26T08:46:27.764Z,22.40
2022-07-26T08:48:56.915Z,22.40
2022-07-26T08:51:28.197Z,22.80
2022-07-26T08:54:04.749Z,23.10
2022-07-26T08:56:37.031Z,23.20
2022-07-26T08:59:20.153Z,23.10
2022-07-26T09:02:04.436Z,22.80
2022-07-26T09:04:44.777Z,22.50
2022-07-26T09:07:15.747Z,22.20
2022-07-26T09:09:55.140Z,21.90
2022-07-26T09:12:26.860Z,21.70
2022-07-26T09:14:55.104Z,21.60
2022-07-26T09:17:24.633Z,21.50
2022-07-26T09:20:14.209Z,21.50
2022-07-26T09:23:12.252Z,21.70
2022-07-26T09:25:47.006Z,21.80
2022-07-26T09:28:31.043Z,22.10
2022-07-26T09:31:04.189Z,22.30
2022-07-26T09:33:50.045Z,22.60
2022-07-26T09:36:18.256Z,22.80
2022-07-26T09:38:47.585Z,22.80
2022-07-26T09:41:36.849Z,22.90
2022-07-26T09:44:06.653Z,23.00
2022-07-26T09:46:35.671Z,23.20
2022-07-26T09:49:20.160Z,23.40
2022-07-26T09:51:49.019Z,23.50
2022-07-26T09:54:35.711Z,23.50
2022-07-26T09:57:03.046Z,23.40
2022-07-26T09:59:30.425Z,23.10
2022-07-26T10:02:00.083Z,23.10
2022-07-26T10:04:27.832Z,23.00
2022-07-26T10:06:57.965Z,23.00
2022-07-26T10:09:30.618Z,22.90
2022-07-26T10:12:03.345Z,22.90
2022-07-26T10:14:35.241Z,22.80
2022-07-26T10:17:35.083Z,22.90
2022-07-26T10:20:10.700Z,23.10
2022-07-26T10:22:46.995Z,23.20
2022-07-26T10:25:20.328Z,23.40
2022-07-26T10:27:55.584Z,23.70
2022-07-26T10:30:41.811Z,24.00
2022-07-26T10:33:15.845Z,24.20
2022-07-26T10:35:43.598Z,24.40
2022-07-26T10:38:22.172Z,24.60
2022-07-26T10:41:04.348Z,24.90
2022-07-26T10:43:42.089Z,25.10
2022-07-26T10:46:23.374Z,25.30
2022-07-26T10:49:09.046Z,25.40
2022-07-26T10:51:38.911Z,25.30
2022-07-26T10:54:11.366Z,25.10
2022-07-26T10:56:38.963Z,24.80
2022-07-26T10:59:06.830Z,24.40
2022-07-26T11:01:40.306Z,24.20
2022-07-26T11:04:18.852Z,24.10
2022-07-26T11:06:46.121Z,24.00
2022-07-26T11:09:13.377Z,23.90
2022-07-26T11:11:46.390Z,23.80
2022-07-26T11:14:18.331Z,23.70
2022-07-26T11:16:47.904Z,23.70
2022-07-26T11:19:26.153Z,23.60
2022-07-26T11:22:03.920Z,23.70
2022-07-26T11:24:30.946Z,23.60
2022-07-26T11:27:03.970Z,23.70
2022-07-26T11:29:39.122Z,23.90
2022-07-26T11:32:22.844Z,24.00
2022-07-26T11:35:00.830Z,24.20
2022-07-26T11:37:28.565Z,24.50
2022-07-26T11:39:56.020Z,24.70
2022-07-26T11:42:23.201Z,24.90
2022-07-26T11:44:50.680Z,24.90
2022-07-26T11:47:20.299Z,24.70
2022-07-26T11:50:00.958Z,24.40
2022-07-26T11:52:35.664Z,24.10
2022-07-26T11:55:02.608Z,24.00
2022-07-26T11:57:31.378Z,23.90
2022-07-26T11:59:59.890Z,24.00
2022-07-26T12:02:27.984Z,24.10
2022-07-26T12:05:21.564Z,24.10
2022-07-26T12:08:04.618Z,24.30
2022-07-26T12:10:32.008Z,24.50
2022-07-26T12:13:13.517Z,24.80
2022-07-26T12:15:56.193Z,25.10
2022-07-26T12:18:28.980Z,25.30
2022-07-26T12:21:13.660Z,25.60
2022-07-26T12:23:45.731Z,25.60
2022-07-26T12:26:24.041Z,25.60
2022-07-26T12:28:56.156Z,25.60
2022-07-26T12:31:31.509Z,25.60
2022-07-26T12:33:59.183Z,25.60
2022-07-26T12:36:29.647Z,25.60
2022-07-26T12:39:00.980Z,25.70
2022-07-26T12:41:50.370Z,25.80
2022-07-26T12:44:17.666Z,25.90
2022-07-26T12:46:45.455Z,26.00
2022-07-26T12:49:12.632Z,26.10
2022-07-26T12:51:40.175Z,26.20
2022-07-26T12:54:08.756Z,26.20
2022-07-26T12:56:36.068Z,26.10
2022-07-26T12:59:05.393Z,26.00
2022-07-26T13:01:32.724Z,26.10
2022-07-26T13:04:00.619Z,26.00
2022-07-26T13:06:29.901Z,26.10
2022-07-26T13:08:56.878Z,26.30
2022-07-26T13:11:25.296Z,26.50
2022-07-26T13:13:52.388Z,26.60
2022-07-26T13:16:20.296Z,26.60
2022-07-26T13:18:48.847Z,26.50
2022-07-26T13:21:17.285Z,26.40
2022-07-26T13:23:49.576Z,26.10
2022-07-26T13:26:19.316Z,26.10
2022-07-26T13:28:50.013Z,26.20
2022-07-26T13:31:19.923Z,26.30
2022-07-26T13:33:47.534Z,26.30
2022-07-26T13:36:14.704Z,26.20
2022-07-26T13:38:42.828Z,26.20
2022-07-26T13:41:13.085Z,26.00
2022-07-26T13:43:39.925Z,26.00
2022-07-26T13:46:07.055Z,26.10
2022-07-26T13:48:34.181Z,26.20
2022-07-26T13:51:02.562Z,26.20
2022-07-26T13:53:30.439Z,26.10
2022-07-26T13:55:57.353Z,26.20
2022-07-26T13:58:24.749Z,26.40
2022-07-26T14:00:51.726Z,26.40
2022-07-26T14:03:21.337Z,26.20
2022-07-26T14:05:48.310Z,26.10
2022-07-26T14:08:15.354Z,26.10
2022-07-26T14:10:42.277Z,26.20
2022-07-26T14:13:10.165Z,26.30
2022-07-26T14:15:38.662Z,26.30
2022-07-26T14:18:08.621Z,26.50
2022-07-26T14:20:35.613Z,26.50
2022-07-26T14:23:04.061Z,26.70
2022-07-26T14:25:33.242Z,27.00
2022-07-26T14:28:00.392Z,27.30
2022-07-26T14:30:27.742Z,27.40
2022-07-26T14:32:54.642Z,27.30
2022-07-26T14:35:23.922Z,27.30
2022-07-26T14:37:55.195Z,27.30
2022-07-26T14:40:22.308Z,27.30
2022-07-26T14:42:55.191Z,27.20
2022-07-26T14:45:25.028Z,27.20
2022-07-26T14:47:52.283Z,27.20
2022-07-26T14:50:19.499Z,27.10
2022-07-26T14:52:49.865Z,26.90
2022-07-26T14:55:20.507Z,26.70
2022-07-26T14:57:51.505Z,26.60
2022-07-26T15:00:18.719Z,26.40
2022-07-26T15:02:47.899Z,26.20
2022-07-26T15:05:17.091Z,25.90
2022-07-26T15:07:44.680Z,25.60
2022-07-26T15:10:13.846Z,25.40
2022-07-26T15:12:41.189Z,25.30
2022-07-26T15:15:20.334Z,25.20
2022-07-26T15:17:47.337Z,25.20
2022-07-26T15:20:14.267Z,25.10
2022-07-26T15:22:41.516Z,25.10
2022-07-26T15:25:09.060Z,25.10
2022-07-26T15:27:38.978Z,25.10
2022-07-26T15:30:10.277Z,25.10
2022-07-26T15:32:41.850Z,25.20
2022-07-26T15:35:14.427Z,25.30
2022-07-26T15:37:43.833Z,25.40
2022-07-26T15:40:11.788Z,25.30
2022-07-26T15:42:51.470Z,25.20
2022-07-26T15:45:28.235Z,25.20
2022-07-26T15:48:11.133Z,25.10
2022-07-26T15:50:45.018Z,25.00
2022-07-26T15:53:15.580Z,25.00
2022-07-26T15:55:42.535Z,25.10
2022-07-26T15:58:09.463Z,25.20
2022-07-26T16:00:36.454Z,25.10
2022-07-26T16:03:03.558Z,24.90
2022-07-26T16:05:30.581Z,24.90
2022-07-26T16:07:57.548Z,24.90
2022-07-26T16:10:24.485Z,24.90
2022-07-26T16:12:51.470Z,24.90
2022-07-26T16:15:19.152Z,24.90
2022-07-26T16:17:46.044Z,24.80
2022-07-26T16:20:13.929Z,24.80
2022-07-26T16:22:41.979Z,24.90
2022-07-26T16:25:09.676Z,25.10
2022-07-26T16:27:36.786Z,25.30
2022-07-26T16:30:04.402Z,25.60
2022-07-26T16:32:33.155Z,25.90
2022-07-26T16:35:00.294Z,25.90
2022-07-26T16:37:29.640Z,25.90
2022-07-26T16:39:56.539Z,25.70
2022-07-26T16:42:23.717Z,25.50
2022-07-26T16:44:50.977Z,25.30
2022-07-26T16:47:18.232Z,25.00
2022-07-26T16:49:45.139Z,24.80
2022-07-26T16:52:12.176Z,24.50
2022-07-26T16:54:39.100Z,24.30
2022-07-26T16:57:07.356Z,24.30
2022-07-26T16:59:34.768Z,24.20
2022-07-26T17:02:02.980Z,24.10
2022-07-26T17:04:32.499Z,24.00
2022-07-26T17:07:23.342Z,23.90
2022-07-26T17:09:46.843Z,23.80
2022-07-26T17:12:14.054Z,23.70
2022-07-26T17:14:44.986Z,23.60
2022-07-26T17:17:12.345Z,23.50
2022-07-26T17:19:39.597Z,23.50
2022-07-26T17:22:09.040Z,23.50
2022-07-26T17:24:41.399Z,23.60
2022-07-26T17:27:08.920Z,23.60
2022-07-26T17:29:36.102Z,23.70
2022-07-26T17:32:05.236Z,23.70
2022-07-26T17:34:35.245Z,23.70
2022-07-26T17:37:05.735Z,23.60
2022-07-26T17:39:52.154Z,23.50
2022-07-26T17:42:19.955Z,23.40
2022-07-26T17:44:47.254Z,23.40
2022-07-26T17:47:18.219Z,23.30
2022-07-26T17:52:50.002Z,23.10
2022-07-26T17:55:19.082Z,22.90
2022-07-26T17:57:48.384Z,22.80
2022-07-26T18:00:23.316Z,22.80
2022-07-26T18:02:54.498Z,22.80
2022-07-26T18:05:22.094Z,23.00
2022-07-26T18:07:49.410Z,23.30
2022-07-26T18:10:16.492Z,23.50
2022-07-26T18:12:43.839Z,23.60
2022-07-26T18:15:11.313Z,23.70
2022-07-26T18:17:38.850Z,23.70
2022-07-26T18:20:07.562Z,23.80
2022-07-26T18:22:37.741Z,23.80
2022-07-26T18:25:05.809Z,23.70
2022-07-26T18:27:35.738Z,23.60
2022-07-26T18:30:04.197Z,23.60
2022-07-26T18:32:31.804Z,23.60
2022-07-26T18:34:59.075Z,23.50
2022-07-26T18:37:26.530Z,23.30
2022-07-26T18:39:57.523Z,23.20
2022-07-26T18:42:26.173Z,23.20
2022-07-26T18:44:53.518Z,23.10
2022-07-26T18:47:20.802Z,23.00
2022-07-26T18:49:48.311Z,22.90
2022-07-26T18:52:17.480Z,22.80
2022-07-26T18:54:58.543Z,22.70
2022-07-26T18:57:25.652Z,22.50
2022-07-26T18:59:52.718Z,22.40
2022-07-26T19:02:19.674Z,22.30
2022-07-26T19:04:49.102Z,22.20
2022-07-26T19:07:16.396Z,22.10
2022-07-26T19:09:43.420Z,22.00
2022-07-26T19:12:10.674Z,22.00
2022-07-26T19:14:37.708Z,21.90
2022-07-26T19:17:09.813Z,21.90
2022-07-26T19:19:40.231Z,21.80
2022-07-26T19:22:07.268Z,21.80
2022-07-26T19:24:42.064Z,21.70
2022-07-26T19:27:09.659Z,21.70
2022-07-26T19:29:39.801Z,21.70
2022-07-26T19:32:07.391Z,21.60
2022-07-26T19:34:37.103Z,21.50
2022-07-26T19:37:05.266Z,21.40
2022-07-26T19:39:32.429Z,21.30
2022-07-26T19:42:00.628Z,21.20
2022-07-26T19:44:27.678Z,21.10
2022-07-26T19:46:57.759Z,21.00
2022-07-26T19:49:25.362Z,20.90
2022-07-26T19:51:54.745Z,20.90
2022-07-26T19:54:21.805Z,20.80
2022-07-26T19:56:49.133Z,20.80
2022-07-26T19:59:22.684Z,20.80
2022-07-26T20:01:53.117Z,20.80
2022-07-26T20:04:21.006Z,20.80
2022-07-26T20:06:48.469Z,20.70
2022-07-26T20:09:18.081Z,20.70
2022-07-26T20:11:50.742Z,20.70
2022-07-26T20:14:21.482Z,20.70
2022-07-26T20:16:54.277Z,20.60
2022-07-26T20:19:24.359Z,20.50
2022-07-26T20:21:51.560Z,20.50
2022-07-26T20:24:19.109Z,20.50
2022-07-26T20:26:46.377Z,20.40
2022-07-26T20:29:16.343Z,20.30
2022-07-26T20:31:43.919Z,20.30
2022-07-26T20:34:11.439Z,20.20
2022-07-26T20:36:38.689Z,20.20
2022-07-26T20:39:06.128Z,20.20
2022-07-26T20:41:34.201Z,20.20
2022-07-26T20:44:01.848Z,20.10
2022-07-26T20:46:29.091Z,20.10
2022-07-26T20:48:56.593Z,20.00
2022-07-26T20:51:23.940Z,20.00
2022-07-26T20:53:51.008Z,19.90
2022-07-26T20:56:18.160Z,19.90
2022-07-26T20:58:45.443Z,19.80
2022-07-26T21:01:14.253Z,19.80
2022-07-26T21:03:42.066Z,19.70
2022-07-26T21:06:09.477Z,19.70
2022-07-26T21:08:38.743Z,19.70
2022-07-26T21:11:06.116Z,19.60
2022-07-26T21:13:34.481Z,19.60
2022-07-26T21:16:01.582Z,19.50
2022-07-26T21:18:30.677Z,19.50
2022-07-26T21:20:59.164Z,19.40
2022-07-26T21:23:26.435Z,19.40
2022-07-26T21:25:58.201Z,19.40
2022-07-26T21:28:28.266Z,19.30
2022-07-26T21:30:55.883Z,19.30
2022-07-26T21:33:23.214Z,19.20
2022-07-26T21:35:50.216Z,19.20
2022-07-26T21:38:17.429Z,19.10
2022-07-26T21:40:44.852Z,19.10
2022-07-26T21:43:11.878Z,19.00
2022-07-26T21:45:39.399Z,19.00
2022-07-26T21:48:07.187Z,18.90
2022-07-26T21:50:34.658Z,18.90
2022-07-26T21:53:02.064Z,18.80
2022-07-26T21:55:29.113Z,18.80
2022-07-26T21:57:56.355Z,18.80
2022-07-26T22:00:23.850Z,18.70
2022-07-26T22:02:51.259Z,18.70
2022-07-26T22:05:40.075Z,18.70
2022-07-26T22:08:12.637Z,18.60
2022-07-26T22:10:45.051Z,18.60
2022-07-26T22:13:13.391Z,18.60
2022-07-26T22:15:41.017Z,18.50
2022-07-26T22:18:09.778Z,18.50
2022-07-26T22:20:37.858Z,18.40
2022-07-26T22:23:09.065Z,18.40
2022-07-26T22:25:37.345Z,18.40
2022-07-26T22:28:06.139Z,18.30
2022-07-26T22:30:33.714Z,18.30
2022-07-26T22:33:03.065Z,18.30
2022-07-26T22:35:35.063Z,18.30
2022-07-26T22:38:11.149Z,18.20
2022-07-26T22:40:39.883Z,18.20
2022-07-26T22:43:07.777Z,18.20
2022-07-26T22:45:35.256Z,18.10
2022-07-26T22:48:04.414Z,18.10
2022-07-26T22:50:32.081Z,18.10
2022-07-26T22:53:01.264Z,18.00
2022-07-26T22:55:29.387Z,18.00
2022-07-26T22:57:56.558Z,18.00
2022-07-26T23:00:23.995Z,17.90
2022-07-26T23:02:54.594Z,17.90
2022-07-26T23:05:21.687Z,17.90
2022-07-26T23:07:54.870Z,17.80
2022-07-26T23:10:22.102Z,17.80
2022-07-26T23:12:49.362Z,17.80
2022-07-26T23:15:17.751Z,17.70
2022-07-26T23:17:44.891Z,17.70
2022-07-26T23:20:12.271Z,17.60
2022-07-26T23:22:41.906Z,17.60
2022-07-26T23:25:09.373Z,17.60
2022-07-26T23:27:38.691Z,17.50
2022-07-26T23:30:06.431Z,17.50
2022-07-26T23:32:33.624Z,17.50
2022-07-26T23:35:01.021Z,17.50
2022-07-26T23:37:28.216Z,17.40
2022-07-26T23:39:55.567Z,17.40
2022-07-26T23:42:22.849Z,17.40
2022-07-26T23:44:50.027Z,17.40
2022-07-26T23:47:17.287Z,17.40
2022-07-26T23:49:44.536Z,17.30
2022-07-26T23:52:11.750Z,17.30
2022-07-26T23:54:39.000Z,17.30
2022-07-26T23:57:06.294Z,17.30
2022-07-26T23:59:33.363Z,17.30
